Time;durP1;ratioP1;P1;durP2;ratioP2;P2;SDS_P1;SDS_P2;PMS_P1;PMS_P2;Temp;Humidity;BMP_temperature;BMP_pressure;BME280_temperature;BME280_humidity;BME280_pressure;Samples;Min_cycle;Max_cycle;Signal;HPM_P1;HPM_P2
2024/02/02 00:00:46;;;;;;;;;;;0.90;99.90;;;-146.41;100.00;57768.22;4979512;28;1377;-69
2024/02/02 00:03:13;;;;;;;;;;;0.90;99.90;;;-146.41;100.00;57768.22;4975712;28;1910;-68
2024/02/02 00:05:41;;;;;;;;;;;0.80;99.90;;;-146.41;100.00;57768.22;4981169;28;1282;-68
2024/02/02 00:08:08;;;;;;;;;;;0.70;99.90;;;-146.41;100.00;57768.22;4977169;28;1681;-68
2024/02/02 00:10:35;;;;;;;;;;;0.60;99.90;;;-146.41;100.00;57768.22;4977788;28;1556;-68
2024/02/02 00:13:02;;;;;;;;;;;0.40;99.90;;;-146.41;100.00;57768.22;4977848;28;1432;-67
2024/02/02 00:15:29;;;;;;;;;;;0.30;99.90;;;-146.41;100.00;57768.22;4980097;28;1993;-68
2024/02/02 00:17:56;;;;;;;;;;;0.30;99.90;;;-146.41;100.00;57768.22;4977475;28;1670;-68
2024/02/02 00:20:23;;;;;;;;;;;0.20;99.90;;;-146.41;100.00;57768.22;5008318;28;1381;-68
2024/02/02 00:22:50;;;;;;;;;;;0.20;99.90;;;-146.41;100.00;57768.22;4979612;28;1996;-68
2024/02/02 00:25:21;;;;;;;;;;;0.20;99.90;;;-146.41;100.00;57768.22;4996564;28;1400;-68
2024/02/02 00:27:48;;;;;;;;;;;0.30;99.90;;;-146.41;100.00;57768.22;4976060;28;1432;-68
2024/02/02 00:30:15;;;;;;;;;;;;;;;-146.41;100.00;57768.22;4980444;28;1647;-68
2024/02/02 00:32:44;;;;;;;;;;;0.10;99.90;;;-146.41;100.00;57768.22;4977147;28;1410;-68
2024/02/02 00:35:12;;;;;;;;;;;0.00;99.90;;;-146.41;100.00;57768.22;4977691;28;1465;-68
2024/02/02 00:37:40;;;;;;;;;;;0.10;99.90;;;-146.41;100.00;57768.22;4979073;28;1097;-67
2024/02/02 00:40:08;;;;;;;;;;;0.00;99.90;;;-146.41;100.00;57768.22;4980047;28;1373;-67
2024/02/02 00:42:36;;;;;;;;;;;0.00;99.90;;;-146.41;100.00;57768.22;4980935;28;1927;-67
2024/02/02 00:45:03;;;;;;;;;;;0.00;99.90;;;-146.41;100.00;57768.22;4998017;28;1610;-67
2024/02/02 00:47:30;;;;;;;;;;;0.10;99.90;;;-146.41;100.00;57768.22;4982716;28;1675;-67
2024/02/02 00:49:58;;;;;;;;;;;0.30;99.90;;;-146.41;100.00;57768.22;4982706;28;1451;-68
2024/02/02 00:52:26;;;;;;;;;;;0.20;99.90;;;-146.41;100.00;57768.22;4982605;28;1619;-68
2024/02/02 00:54:53;;;;;;;;;;;0.30;99.90;;;-146.41;100.00;57768.22;4994089;28;1438;-68
2024/02/02 00:57:20;;;;;;;;;;;0.40;99.90;;;-146.41;100.00;57768.22;4978011;28;1507;-68
2024/02/02 00:59:50;;;;;;;;;;;0.40;99.90;;;-146.41;100.00;57768.22;4980471;28;1453;-68
2024/02/02 01:02:17;;;;;;;;;;;0.40;99.90;;;-146.41;100.00;57768.22;4981515;28;1946;-67
2024/02/02 01:04:44;;;;;;;;;;;0.40;99.90;;;-146.41;100.00;57768.22;4978299;28;1802;-68
2024/02/02 01:07:18;;;;;;;;;;;0.60;99.90;;;-146.41;100.00;57768.22;4980936;28;1377;-67
2024/02/02 01:09:45;;;;;;;;;;;0.70;99.90;;;-146.41;100.00;57768.22;4980375;28;1436;-68
2024/02/02 01:12:13;;;;;;;;;;;0.70;99.90;;;-146.41;100.00;57768.22;4981025;28;1463;-68
2024/02/02 01:14:40;;;;;;;;;;;0.90;99.90;;;-146.41;100.00;57768.22;4984359;28;1476;-68
2024/02/02 01:17:07;;;;;;;;;;;0.90;99.90;;;-146.41;100.00;57768.22;4980617;28;1710;-68
2024/02/02 01:19:35;;;;;;;;;;;0.90;99.90;;;-146.41;100.00;57768.22;4981695;28;1440;-68
2024/02/02 01:22:02;;;;;;;;;;;1.00;99.90;;;-146.41;100.00;57768.22;4983544;28;1919;-68
2024/02/02 01:24:30;;;;;;;;;;;1.10;99.90;;;-146.41;100.00;57768.22;4985163;28;1575;-67
2024/02/02 01:26:57;;;;;;;;;;;1.20;99.90;;;-146.41;100.00;57768.22;4985476;28;1384;-68
2024/02/02 01:29:25;;;;;;;;;;;1.10;99.90;;;-146.41;100.00;57768.22;5013777;28;1352;-68
2024/02/02 01:31:52;;;;;;;;;;;1.10;99.90;;;-146.41;100.00;57768.22;4982905;28;1710;-68
2024/02/02 01:34:19;;;;;;;;;;;1.10;99.90;;;-146.41;100.00;57768.22;4979275;28;1353;-68
2024/02/02 01:36:46;;;;;;;;;;;1.00;99.90;;;-146.41;100.00;57768.22;4982107;28;2031;-69
2024/02/02 01:39:13;;;;;;;;;;;1.00;99.90;;;-146.41;100.00;57768.22;4980597;28;1600;-68
2024/02/02 01:41:40;;;;;;;;;;;1.00;99.90;;;-146.41;100.00;57768.22;4997109;28;1911;-68
2024/02/02 01:44:07;;;;;;;;;;;0.90;99.90;;;-146.41;100.00;57768.22;4981205;28;1485;-68
2024/02/02 01:46:34;;;;;;;;;;;1.00;99.90;;;-146.41;100.00;57768.22;4982564;28;1405;-68
2024/02/02 01:49:01;;;;;;;;;;;1.00;99.90;;;-146.41;100.00;57768.22;4980651;28;1496;-68
2024/02/02 01:51:28;;;;;;;;;;;1.00;99.90;;;-146.41;100.00;57768.22;5013364;28;1503;-68
2024/02/02 01:53:55;;;;;;;;;;;1.00;99.90;;;-146.41;100.00;57768.22;5011742;28;1392;-68
2024/02/02 01:56:22;;;;;;;;;;;1.00;99.90;;;-146.41;100.00;57768.22;4994595;28;1488;-68
2024/02/02 01:58:49;;;;;;;;;;;0.90;99.90;;;-146.41;100.00;57768.22;4978613;28;1635;-68
2024/02/02 02:01:16;;;;;;;;;;;0.90;99.90;;;-146.41;100.00;57768.22;4978743;28;1448;-68
2024/02/02 02:03:44;;;;;;;;;;;1.00;99.90;;;-146.41;100.00;57768.22;4975007;28;2035;-68
2024/02/02 02:06:11;;;;;;;;;;;1.10;99.90;;;-146.41;100.00;57768.22;4979663;28;1543;-68
2024/02/02 02:08:38;;;;;;;;;;;1.20;99.90;;;-146.41;100.00;57768.22;4982526;28;1388;-68
2024/02/02 02:11:06;;;;;;;;;;;1.40;99.90;;;-146.41;100.00;57768.22;4979338;28;1430;-68
2024/02/02 02:13:33;;;;;;;;;;;1.50;99.90;;;-146.41;100.00;57768.22;4980762;28;1726;-68
2024/02/02 02:16:00;;;;;;;;;;;1.60;99.90;;;-146.41;100.00;57768.22;4981588;28;1477;-68
2024/02/02 02:18:27;;;;;;;;;;;1.80;99.90;;;-146.41;100.00;57768.22;4981419;28;1318;-68
2024/02/02 02:20:57;;;;;;;;;;;1.90;99.90;;;-146.41;100.00;57768.22;4980300;28;1536;-68
2024/02/02 02:23:27;;;;;;;;;;;1.90;99.90;;;-146.41;100.00;57768.22;4979671;28;1902;-68
2024/02/02 02:25:54;;;;;;;;;;;2.00;99.90;;;-146.41;100.00;57768.22;4978188;28;1461;-67
2024/02/02 02:28:21;;;;;;;;;;;2.00;99.90;;;-146.41;100.00;57768.22;4994997;28;1251;-68
2024/02/02 02:30:48;;;;;;;;;;;2.10;99.90;;;-146.41;100.00;57768.22;4981035;28;1372;-68
2024/02/02 02:33:14;;;;;;;;;;;2.20;99.90;;;-146.41;100.00;57768.22;4981700;28;1722;-68
2024/02/02 02:35:41;;;;;;;;;;;2.20;99.90;;;-146.41;100.00;57768.22;4982095;28;1646;-68
2024/02/02 02:38:08;;;;;;;;;;;2.30;99.90;;;-146.41;100.00;57768.22;4979566;28;1280;-67
2024/02/02 02:40:35;;;;;;;;;;;2.30;99.90;;;-146.41;100.00;57768.22;4979926;28;1219;-68
2024/02/02 02:43:02;;;;;;;;;;;2.40;99.90;;;-146.41;100.00;57768.22;4994910;28;1915;-68
2024/02/02 02:45:29;;;;;;;;;;;2.40;99.90;;;-146.41;100.00;57768.22;4979009;28;1402;-67
2024/02/02 02:47:56;;;;;;;;;;;2.50;99.90;;;-146.41;100.00;57768.22;4982190;28;1278;-68
2024/02/02 02:50:23;;;;;;;;;;;2.50;99.90;;;-146.41;100.00;57768.22;4982354;28;1282;-68
2024/02/02 02:52:50;;;;;;;;;;;2.50;99.90;;;-146.41;100.00;57768.22;4978529;28;1438;-68
2024/02/02 02:55:17;;;;;;;;;;;2.60;99.90;;;-146.41;100.00;57768.22;4981726;28;1346;-67
2024/02/02 02:57:44;;;;;;;;;;;2.60;99.90;;;-146.41;100.00;57768.22;4980587;28;1220;-68
2024/02/02 03:00:12;;;;;;;;;;;2.60;99.90;;;-146.41;100.00;57768.22;4981435;28;1363;-68
2024/02/02 03:02:39;;;;;;;;;;;2.60;99.90;;;-146.41;100.00;57768.22;4981899;28;1989;-68
2024/02/02 03:05:06;;;;;;;;;;;2.40;99.90;;;-146.41;100.00;57768.22;4978950;28;1458;-67
2024/02/02 03:07:33;;;;;;;;;;;2.40;99.90;;;-146.41;100.00;57768.22;4980957;28;1330;-68
2024/02/02 03:10:00;;;;;;;;;;;2.30;99.90;;;-146.41;100.00;57768.22;4979517;28;1388;-67
2024/02/02 03:12:27;;;;;;;;;;;2.30;99.90;;;-146.41;100.00;57768.22;4981946;28;1362;-68
2024/02/02 03:14:55;;;;;;;;;;;2.30;99.90;;;-146.41;100.00;57768.22;4978450;28;1580;-68
2024/02/02 03:17:22;;;;;;;;;;;2.40;99.90;;;-146.41;100.00;57768.22;4978144;28;1600;-69
2024/02/02 03:19:48;;;;;;;;;;;2.40;99.90;;;-146.41;100.00;57768.22;4981175;28;1199;-68
2024/02/02 03:22:15;;;;;;;;;;;2.40;99.90;;;-146.41;100.00;57768.22;4975988;28;1930;-68
2024/02/02 03:24:42;;;;;;;;;;;2.40;99.90;;;-146.41;100.00;57768.22;4978308;28;1407;-68
2024/02/02 03:27:09;;;;;;;;;;;2.50;99.90;;;-146.41;100.00;57768.22;4980569;28;1345;-69
2024/02/02 03:29:36;;;;;;;;;;;2.50;99.90;;;-146.41;100.00;57768.22;4982375;28;1641;-69
2024/02/02 03:32:03;;;;;;;;;;;2.60;99.90;;;-146.41;100.00;57768.22;4981646;28;1251;-68
2024/02/02 03:34:30;;;;;;;;;;;2.60;99.90;;;-146.41;100.00;57768.22;4997633;28;1510;-68
2024/02/02 03:36:57;;;;;;;;;;;2.70;99.90;;;-146.41;100.00;57768.22;4994951;28;1228;-68
2024/02/02 03:39:24;;;;;;;;;;;2.70;99.90;;;-146.41;100.00;57768.22;4979471;28;1286;-68
2024/02/02 03:41:51;;;;;;;;;;;2.70;99.90;;;-146.41;100.00;57768.22;4993575;28;1529;-68
2024/02/02 03:44:18;;;;;;;;;;;2.80;99.90;;;-146.41;100.00;57768.22;4980162;28;1989;-68
2024/02/02 03:46:46;;;;;;;;;;;2.90;99.90;;;-146.41;100.00;57768.22;4981788;28;1263;-69
2024/02/02 03:49:13;;;;;;;;;;;2.90;99.90;;;-146.41;100.00;57768.22;4982327;28;1262;-69
2024/02/02 03:51:40;;;;;;;;;;;3.00;99.90;;;-146.41;100.00;57768.22;4976862;28;1276;-68
2024/02/02 03:54:07;;;;;;;;;;;3.00;99.90;;;-146.41;100.00;57768.22;4978896;28;1403;-68
2024/02/02 03:56:34;;;;;;;;;;;3.00;99.90;;;-146.41;100.00;57768.22;4994594;28;1335;-68
2024/02/02 03:59:01;;;;;;;;;;;3.00;99.90;;;-146.41;100.00;57768.22;4979306;28;1375;-68
2024/02/02 04:01:28;;;;;;;;;;;2.90;99.90;;;-146.41;100.00;57768.22;4980340;28;1318;-68
2024/02/02 04:03:55;;;;;;;;;;;3.00;99.90;;;-146.41;100.00;57768.22;4980561;28;1990;-68
2024/02/02 04:06:23;;;;;;;;;;;3.00;99.90;;;-146.41;100.00;57768.22;4983988;28;1314;-70
2024/02/02 04:08:49;;;;;;;;;;;3.00;99.90;;;-146.41;100.00;57768.22;5010927;28;1366;-68
2024/02/02 04:11:16;;;;;;;;;;;2.90;99.90;;;-146.41;100.00;57768.22;4980388;28;1400;-69
2024/02/02 04:13:43;;;;;;;;;;;2.80;99.90;;;-146.41;100.00;57768.22;4979756;28;1442;-68
2024/02/02 04:16:10;;;;;;;;;;;2.80;99.90;;;-146.41;100.00;57768.22;4983153;28;1345;-69
2024/02/02 04:18:37;;;;;;;;;;;2.70;99.90;;;-146.41;100.00;57768.22;4982442;28;1220;-68
2024/02/02 04:21:04;;;;;;;;;;;2.60;99.90;;;-146.41;100.00;57768.22;4968153;28;1308;-69
2024/02/02 04:23:31;;;;;;;;;;;2.60;99.90;;;-146.41;100.00;57768.22;4984366;28;1902;-68
2024/02/02 04:25:58;;;;;;;;;;;2.60;99.90;;;-146.41;100.00;57768.22;5000072;28;1308;-68
2024/02/02 04:28:25;;;;;;;;;;;2.70;99.90;;;-146.41;100.00;57768.22;4983343;28;1396;-68
2024/02/02 04:30:52;;;;;;;;;;;2.70;99.90;;;-146.41;100.00;57768.22;4983385;28;1326;-69
2024/02/02 04:33:18;;;;;;;;;;;2.70;99.90;;;-146.41;100.00;57768.22;4985112;28;1235;-69
2024/02/02 04:35:46;;;;;;;;;;;2.80;99.90;;;-146.41;100.00;57768.22;4983066;28;1265;-68
2024/02/02 04:38:12;;;;;;;;;;;2.70;99.90;;;-146.41;100.00;57768.22;5002521;28;1408;-68
2024/02/02 04:40:39;;;;;;;;;;;2.70;99.90;;;-146.41;100.00;57768.22;4982085;28;1472;-68
2024/02/02 04:43:06;;;;;;;;;;;2.80;99.90;;;-146.41;100.00;57768.22;4981663;28;1891;-68
2024/02/02 04:45:33;;;;;;;;;;;2.80;99.90;;;-146.41;100.00;57768.22;4998016;28;1334;-69
2024/02/02 04:48:00;;;;;;;;;;;2.80;99.90;;;-146.41;100.00;57768.22;4985284;28;1206;-69
2024/02/02 04:50:28;;;;;;;;;;;2.90;99.90;;;-146.41;100.00;57768.22;4982763;28;1252;-69
2024/02/02 04:52:55;;;;;;;;;;;3.00;99.90;;;-146.41;100.00;57768.22;4985371;28;1407;-68
2024/02/02 04:55:22;;;;;;;;;;;3.00;99.90;;;-146.41;100.00;57768.22;4984681;28;1438;-68
2024/02/02 04:57:49;;;;;;;;;;;3.00;99.90;;;-146.41;100.00;57768.22;4982827;28;1380;-69
2024/02/02 05:00:16;;;;;;;;;;;3.00;99.90;;;-146.41;100.00;57768.22;4984569;28;1455;-69
2024/02/02 05:02:43;;;;;;;;;;;3.00;99.90;;;-146.41;100.00;57768.22;4978697;28;1978;-67
2024/02/02 05:05:10;;;;;;;;;;;3.00;99.90;;;-146.41;100.00;57768.22;4997058;28;1402;-68
2024/02/02 05:07:37;;;;;;;;;;;2.90;99.90;;;-146.41;100.00;57768.22;4984821;28;1303;-68
2024/02/02 05:10:05;;;;;;;;;;;3.00;99.90;;;-146.41;100.00;57768.22;4981850;28;1287;-68
2024/02/02 05:12:33;;;;;;;;;;;3.00;99.90;;;-146.41;100.00;57768.22;4982746;28;1697;-69
2024/02/02 05:15:00;;;;;;;;;;;3.00;99.90;;;-146.41;100.00;57768.22;4997081;28;1256;-68
2024/02/02 05:17:27;;;;;;;;;;;3.00;99.90;;;-146.41;100.00;57768.22;4981397;28;1513;-68
2024/02/02 05:19:54;;;;;;;;;;;3.00;99.90;;;-146.41;100.00;57768.22;4983359;28;1379;-68
2024/02/02 05:22:21;;;;;;;;;;;3.00;99.90;;;-146.41;100.00;57768.22;4981679;28;1377;-68
2024/02/02 05:24:49;;;;;;;;;;;3.10;99.90;;;-146.41;100.00;57768.22;4995021;28;1961;-68
2024/02/02 05:27:16;;;;;;;;;;;3.10;99.90;;;-146.41;100.00;57768.22;4980186;28;1388;-69
2024/02/02 05:29:44;;;;;;;;;;;3.10;99.90;;;-146.41;100.00;57768.22;4982354;28;1184;-69
2024/02/02 05:32:11;;;;;;;;;;;3.10;99.90;;;-146.41;100.00;57768.22;4982597;28;1357;-68
2024/02/02 05:34:38;;;;;;;;;;;3.10;99.90;;;-146.41;100.00;57768.22;4981031;28;1367;-68
2024/02/02 05:37:05;;;;;;;;;;;3.10;99.90;;;-146.41;100.00;57768.22;4999412;28;1324;-68
2024/02/02 05:39:32;;;;;;;;;;;3.10;99.90;;;-146.41;100.00;57768.22;4982120;28;1560;-68
2024/02/02 05:41:59;;;;;;;;;;;3.20;99.90;;;-146.41;100.00;57768.22;4972055;28;1264;-67
2024/02/02 05:44:26;;;;;;;;;;;3.20;99.90;;;-146.41;100.00;57768.22;4980742;28;1985;-68
2024/02/02 05:46:53;;;;;;;;;;;3.30;99.90;;;-146.41;100.00;57768.22;4980328;28;1532;-68
2024/02/02 05:49:21;;;;;;;;;;;3.30;99.90;;;-146.41;100.00;57768.22;4983110;28;1334;-69
2024/02/02 05:51:48;;;;;;;;;;;3.40;99.90;;;-146.41;100.00;57768.22;4980359;28;1305;-68
2024/02/02 05:54:15;;;;;;;;;;;3.40;99.90;;;-146.41;100.00;57768.22;4981810;28;1336;-68
2024/02/02 05:56:42;;;;;;;;;;;3.50;99.90;;;-146.41;100.00;57768.22;4998914;28;1430;-69
2024/02/02 05:59:09;;;;;;;;;;;3.50;99.90;;;-146.41;100.00;57768.22;5012535;28;1516;-68
2024/02/02 06:01:36;;;;;;;;;;;3.50;99.90;;;-146.41;100.00;57768.22;4982405;28;1529;-68
2024/02/02 06:04:03;;;;;;;;;;;3.60;99.90;;;-146.41;100.00;57768.22;4979584;28;1907;-68
2024/02/02 06:06:30;;;;;;;;;;;3.60;99.90;;;-146.41;100.00;57768.22;4997066;28;1223;-67
2024/02/02 06:08:57;;;;;;;;;;;3.60;99.90;;;-146.41;100.00;57768.22;4980449;28;1334;-68
2024/02/02 06:11:26;;;;;;;;;;;3.70;99.90;;;-146.41;100.00;57768.22;4981993;28;1468;-67
2024/02/02 06:13:55;;;;;;;;;;;3.70;99.90;;;-146.41;100.00;57768.22;4981823;28;1399;-68
2024/02/02 06:16:24;;;;;;;;;;;3.70;99.90;;;-146.41;100.00;57768.22;4978581;28;1098;-67
2024/02/02 06:18:51;;;;;;;;;;;3.60;99.90;;;-146.41;100.00;57768.22;4982054;28;1039;-68
2024/02/02 06:21:18;;;;;;;;;;;3.60;99.90;;;-146.41;100.00;57768.22;4979142;28;1536;-68
2024/02/02 06:23:45;;;;;;;;;;;3.60;99.90;;;-146.41;100.00;57768.22;4980429;28;1906;-68
2024/02/02 06:26:12;;;;;;;;;;;3.70;99.90;;;-146.41;100.00;57768.22;4981566;28;1626;-69
2024/02/02 06:28:39;;;;;;;;;;;3.70;99.90;;;-146.41;100.00;57768.22;4979656;28;1148;-68
2024/02/02 06:31:06;;;;;;;;;;;3.70;99.90;;;-146.41;100.00;57768.22;4979257;28;1030;-67
2024/02/02 06:33:33;;;;;;;;;;;3.70;99.90;;;-146.41;100.00;57768.22;4979217;28;1336;-69
2024/02/02 06:36:00;;;;;;;;;;;3.70;99.90;;;-146.41;100.00;57768.22;4997983;28;1385;-68
2024/02/02 06:38:27;;;;;;;;;;;3.70;99.90;;;-146.41;100.00;57768.22;4979241;28;1186;-68
2024/02/02 06:40:53;;;;;;;;;;;3.70;99.90;;;-146.41;100.00;57768.22;4979712;28;1325;-69
2024/02/02 06:43:21;;;;;;;;;;;3.70;99.90;;;-146.41;100.00;57768.22;4996389;28;1899;-68
2024/02/02 06:45:48;;;;;;;;;;;3.70;99.90;;;-146.41;100.00;57768.22;4979788;28;1324;-68
2024/02/02 06:48:15;;;;;;;;;;;3.80;99.90;;;-146.41;100.00;57768.22;4977685;28;1022;-68
2024/02/02 06:50:44;;;;;;;;;;;3.80;99.90;;;-146.41;100.00;57768.22;4980917;28;1240;-68
2024/02/02 06:53:11;;;;;;;;;;;3.80;99.90;;;-146.41;100.00;57768.22;4995009;28;1432;-68
2024/02/02 06:55:38;;;;;;;;;;;3.80;99.90;;;-146.41;100.00;57768.22;4981033;28;1360;-68
2024/02/02 06:58:13;;;;;;;;;;;3.80;99.90;;;-146.41;100.00;57768.22;5009818;28;1355;-67
2024/02/02 07:00:40;;;;;;;;;;;3.80;99.90;;;-146.41;100.00;57768.22;4978848;28;1413;-69
2024/02/02 07:03:07;;;;;;;;;;;3.90;99.90;;;-146.41;100.00;57768.22;4976790;28;2014;-68
2024/02/02 07:05:34;;;;;;;;;;;3.90;99.90;;;-146.41;100.00;57768.22;4978811;28;1420;-68
2024/02/02 07:08:02;;;;;;;;;;;3.90;99.90;;;-146.41;100.00;57768.22;4978231;28;1181;-68
2024/02/02 07:10:30;;;;;;;;;;;3.90;99.90;;;-146.41;100.00;57768.22;4977929;28;1926;-68
2024/02/02 07:13:00;;;;;;;;;;;4.00;99.90;;;-146.41;100.00;57768.22;4978823;28;1056;-69
2024/02/02 07:15:30;;;;;;;;;;;4.00;99.90;;;-146.41;100.00;57768.22;5011500;28;1397;-69
2024/02/02 07:17:58;;;;;;;;;;;4.00;99.90;;;-146.41;100.00;57768.22;4979726;28;1099;-68
2024/02/02 07:20:25;;;;;;;;;;;4.00;99.90;;;-146.41;100.00;57768.22;4992694;28;1065;-68
2024/02/02 07:22:53;;;;;;;;;;;4.00;99.90;;;-146.41;100.00;57768.22;4978264;28;1014;-69
2024/02/02 07:25:21;;;;;;;;;;;4.00;99.90;;;-146.41;100.00;57768.22;4980845;28;1935;-69
2024/02/02 07:27:51;;;;;;;;;;;4.10;99.90;;;-146.41;100.00;57768.22;4981191;28;1491;-69
2024/02/02 07:30:24;;;;;;;;;;;4.10;99.90;;;-146.41;100.00;57768.22;4978883;28;1176;-68
2024/02/02 07:32:51;;;;;;;;;;;4.10;99.90;;;-146.41;100.00;57768.22;4999049;28;1165;-68
2024/02/02 07:35:30;;;;;;;;;;;4.00;99.90;;;-146.41;100.00;57768.22;4980116;28;1284;-68
2024/02/02 07:38:02;;;;;;;;;;;4.10;99.90;;;-146.41;100.00;57768.22;4962222;28;1156;-68
2024/02/02 07:40:55;;;;;;;;;;;4.00;99.90;;;-146.41;100.00;57768.22;4994691;28;1418;-68
2024/02/02 07:43:22;;;;;;;;;;;4.00;99.90;;;-146.41;100.00;57768.22;4977458;28;1910;-68
2024/02/02 07:45:48;;;;;;;;;;;4.10;99.90;;;-146.41;100.00;57768.22;4977967;28;1694;-68
2024/02/02 07:48:15;;;;;;;;;;;4.10;99.90;;;-146.41;100.00;57768.22;4979714;28;1477;-68
2024/02/02 07:50:42;;;;;;;;;;;4.10;99.90;;;-146.41;100.00;57768.22;4980273;28;1125;-68
2024/02/02 07:53:09;;;;;;;;;;;4.10;99.90;;;-146.41;100.00;57768.22;4988444;28;1272;-68
2024/02/02 07:55:36;;;;;;;;;;;4.10;99.90;;;-146.41;100.00;57768.22;4984158;28;1344;-68
2024/02/02 07:58:03;;;;;;;;;;;4.20;99.90;;;-146.41;100.00;57768.22;4982476;28;1103;-67
2024/02/02 08:00:30;;;;;;;;;;;4.20;99.90;;;-146.41;100.00;57768.22;4997663;28;1106;-68
2024/02/02 08:02:57;;;;;;;;;;;4.20;99.90;;;-146.41;100.00;57768.22;5009013;28;1828;-68
2024/02/02 08:05:27;;;;;;;;;;;4.20;99.90;;;-146.41;100.00;57768.22;4996892;28;1926;-67
2024/02/02 08:07:54;;;;;;;;;;;4.30;99.90;;;-146.41;100.00;57768.22;4981143;28;1142;-69
2024/02/02 08:10:21;;;;;;;;;;;4.30;99.90;;;-146.41;100.00;57768.22;4981234;28;1456;-69
2024/02/02 08:12:48;;;;;;;;;;;4.30;99.90;;;-146.41;100.00;57768.22;4980452;28;1518;-67
2024/02/02 08:15:15;;;;;;;;;;;4.30;99.90;;;-146.41;100.00;57768.22;4999752;28;1412;-69
2024/02/02 08:17:42;;;;;;;;;;;4.20;99.90;;;-146.41;100.00;57768.22;4981928;28;1117;-67
2024/02/02 08:20:09;;;;;;;;;;;4.30;99.90;;;-146.41;100.00;57768.22;4983274;28;1204;-67
2024/02/02 08:22:36;;;;;;;;;;;4.30;99.90;;;-146.41;100.00;57768.22;4981830;28;1241;-69
2024/02/02 08:25:03;;;;;;;;;;;4.40;99.90;;;-146.41;100.00;57768.22;4982154;28;2013;-67
2024/02/02 08:27:30;;;;;;;;;;;4.40;99.90;;;-146.41;100.00;57768.22;4982838;28;1420;-68
2024/02/02 08:29:57;;;;;;;;;;;4.40;99.90;;;-146.41;100.00;57768.22;5007250;28;1170;-69
2024/02/02 08:32:24;;;;;;;;;;;4.40;99.90;;;-146.41;100.00;57768.22;4981247;28;1118;-68
2024/02/02 08:34:51;;;;;;;;;;;4.40;99.90;;;-146.41;100.00;57768.22;4982834;28;1296;-69
2024/02/02 08:37:19;;;;;;;;;;;4.50;99.90;;;-146.41;100.00;57768.22;4983964;28;1364;-69
2024/02/02 08:39:46;;;;;;;;;;;4.50;99.90;;;-146.41;100.00;57768.22;4980478;28;1354;-69
2024/02/02 08:42:21;;;;;;;;;;;4.60;99.90;;;-146.41;100.00;57768.22;4980429;28;1399;-68
2024/02/02 08:44:52;;;;;;;;;;;4.50;99.90;;;-146.41;100.00;57768.22;4996641;28;1914;-67
2024/02/02 08:47:19;;;;;;;;;;;4.60;99.90;;;-146.41;100.00;57768.22;4982065;28;1214;-68
2024/02/02 08:49:55;;;;;;;;;;;4.60;99.90;;;-146.41;100.00;57768.22;4982044;28;1397;-68
2024/02/02 08:52:25;;;;;;;;;;;4.70;99.90;;;-146.41;100.00;57768.22;4982044;28;1372;-69
2024/02/02 08:54:52;;;;;;;;;;;4.70;99.90;;;-146.41;100.00;57768.22;4981467;28;1389;-69
2024/02/02 08:58:05;;;;;;;;;;;4.70;99.90;;;-146.41;100.00;57768.22;4981641;28;1364;-68
2024/02/02 09:00:38;;;;;;;;;;;4.70;99.90;;;-146.41;100.00;57768.22;4978012;28;1120;-68
2024/02/02 09:03:46;;;;;;;;;;;4.80;99.90;;;-146.41;100.00;57768.22;4978719;28;1353;-67
2024/02/02 09:06:25;;;;;;;;;;;4.80;99.90;;;-146.41;100.00;57768.22;4978388;28;1247;-69
2024/02/02 09:08:52;;;;;;;;;;;4.90;99.90;;;-146.41;100.00;57768.22;5011271;28;1157;-68
2024/02/02 09:11:21;;;;;;;;;;;4.90;99.90;;;-146.41;100.00;57768.22;4996880;28;1770;-69
2024/02/02 09:13:59;;;;;;;;;;;5.00;99.90;;;-146.41;100.00;57768.22;4995300;28;1343;-68
2024/02/02 09:16:38;;;;;;;;;;;5.10;99.90;;;-146.41;100.00;57768.22;4980746;28;1023;-68
2024/02/02 09:19:13;;;;;;;;;;;5.10;99.90;;;-146.41;100.00;57768.22;4996656;28;1061;-68
2024/02/02 09:21:40;;;;;;;;;;;5.10;99.90;;;-146.41;100.00;57768.22;4991748;28;1405;-67
2024/02/02 09:24:12;;;;;;;;;;;5.10;99.90;;;-146.41;100.00;57768.22;4979415;28;1937;-68
2024/02/02 09:26:40;;;;;;;;;;;5.10;99.90;;;-146.41;100.00;57768.22;4994249;28;1005;-68
2024/02/02 09:29:08;;;;;;;;;;;5.20;99.90;;;-146.41;100.00;57768.22;4980392;28;1151;-68
2024/02/02 09:31:36;;;;;;;;;;;5.30;99.90;;;-146.41;100.00;57768.22;4980601;28;1096;-68
2024/02/02 09:34:09;;;;;;;;;;;5.20;99.90;;;-146.41;100.00;57768.22;4979184;28;1312;-68
2024/02/02 09:36:38;;;;;;;;;;;5.20;99.90;;;-146.41;100.00;57768.22;4983215;28;1439;-68
2024/02/02 09:39:20;;;;;;;;;;;5.20;99.90;;;-146.41;100.00;57768.22;4980516;28;1428;-68
2024/02/02 09:42:02;;;;;;;;;;;5.20;99.90;;;-146.41;100.00;57768.22;4975505;28;1370;-69
2024/02/02 09:44:59;;;;;;;;;;;5.40;99.90;;;-146.41;100.00;57768.22;5007712;28;1988;-68
2024/02/02 09:47:45;;;;;;;;;;;5.60;99.90;;;-146.41;100.00;57768.22;4981168;28;1691;-68
2024/02/02 09:50:45;;;;;;;;;;;5.70;99.90;;;-146.41;100.00;57768.22;4997282;28;1230;-68
2024/02/02 09:53:29;;;;;;;;;;;5.70;99.90;;;-146.41;100.00;57768.22;4979598;28;1273;-68
2024/02/02 09:56:13;;;;;;;;;;;5.90;99.90;;;-146.41;100.00;57768.22;4983370;28;1391;-69
2024/02/02 09:58:44;;;;;;;;;;;5.90;99.90;;;-146.41;100.00;57768.22;4982457;28;1422;-68
2024/02/02 10:01:25;;;;;;;;;;;5.90;99.90;;;-146.41;100.00;57768.22;4995445;28;1142;-68
2024/02/02 10:03:56;;;;;;;;;;;5.90;99.90;;;-146.41;100.00;57768.22;4979258;28;1930;-68
2024/02/02 10:06:56;;;;;;;;;;;5.90;99.90;;;-146.41;100.00;57768.22;4977963;28;1142;-68
2024/02/02 10:09:27;;;;;;;;;;;5.90;99.90;;;-146.41;100.00;57768.22;4981311;28;1429;-68
2024/02/02 10:12:11;;;;;;;;;;;5.80;99.90;;;-146.41;100.00;57768.22;4979590;28;1340;-68
2024/02/02 10:14:37;;;;;;;;;;;5.90;99.90;;;-146.41;100.00;57768.22;4977884;28;1427;-67
2024/02/02 10:17:20;;;;;;;;;;;6.10;99.90;;;-146.41;100.00;57768.22;4981381;28;1416;-68
2024/02/02 10:20:02;;;;;;;;;;;6.00;99.90;;;-146.41;100.00;57768.22;4980675;28;1284;-68
2024/02/02 10:22:46;;;;;;;;;;;6.10;99.90;;;-146.41;100.00;57768.22;4977690;28;1388;-68
2024/02/02 10:25:25;;;;;;;;;;;6.00;99.90;;;-146.41;100.00;57768.22;4998779;28;1943;-68
2024/02/02 10:28:00;;;;;;;;;;;6.10;99.90;;;-146.41;100.00;57768.22;4978600;28;1332;-69
2024/02/02 10:30:34;;;;;;;;;;;6.20;99.90;;;-146.41;100.00;57768.22;4982511;28;1995;-69
2024/02/02 10:33:06;;;;;;;;;;;6.30;99.90;;;-146.41;100.00;57768.22;4995667;28;1402;-68
2024/02/02 10:35:53;;;;;;;;;;;6.20;99.90;;;-146.41;100.00;57768.22;4977347;28;1261;-68
2024/02/02 10:38:33;;;;;;;;;;;6.20;99.90;;;-146.41;100.00;57768.22;4976253;28;1387;-66
2024/02/02 10:41:20;;;;;;;;;;;6.20;99.90;;;-146.41;100.00;57768.22;4979823;28;1152;-68
2024/02/02 10:44:08;;;;;;;;;;;6.40;99.90;;;-146.41;100.00;57768.22;4978870;28;2051;-69
2024/02/02 10:46:42;;;;;;;;;;;6.40;99.90;;;-146.41;100.00;57768.22;4979524;28;1397;-68
2024/02/02 10:49:15;;;;;;;;;;;6.50;99.90;;;-146.41;100.00;57768.22;4975326;28;1353;-68
2024/02/02 10:52:17;;;;;;;;;;;6.60;99.90;;;-146.41;100.00;57768.22;4978969;28;1383;-68
2024/02/02 10:54:56;;;;;;;;;;;6.70;99.90;;;-146.41;100.00;57768.22;5006800;28;1315;-68
2024/02/02 10:57:53;;;;;;;;;;;6.80;99.90;;;-146.41;100.00;57768.22;4980614;28;1232;-69
2024/02/02 11:00:21;;;;;;;;;;;7.00;99.90;;;-146.41;100.00;57768.22;4980689;28;1397;-68
2024/02/02 11:03:08;;;;;;;;;;;7.00;99.90;;;-146.41;100.00;57768.22;4976589;28;1597;-68
2024/02/02 11:05:44;;;;;;;;;;;6.90;99.90;;;-146.41;100.00;57768.22;4978671;28;1907;-68
2024/02/02 11:08:15;;;;;;;;;;;6.80;99.90;;;-146.41;100.00;57768.22;4981077;28;1547;-68
2024/02/02 11:11:03;;;;;;;;;;;7.00;99.90;;;-146.41;100.00;57768.22;4995948;28;1351;-68
2024/02/02 11:13:42;;;;;;;;;;;7.00;99.90;;;-146.41;100.00;57768.22;4980827;28;1470;-69
2024/02/02 11:16:33;;;;;;;;;;;7.10;99.90;;;-146.41;100.00;57768.22;4979840;28;1829;-69
2024/02/02 11:19:07;;;;;;;;;;;7.10;99.90;;;-146.41;100.00;57768.22;4981160;28;1282;-67
2024/02/02 11:21:43;;;;;;;;;;;7.10;99.90;;;-146.41;100.00;57768.22;4978233;28;1460;-69